METAR rapporten vliegvelden

   
EHVK - Volkel Rnlafb, Netherlands
Afstand tot: ZW 18 km
Gewijzigd: 20-01-2020 14:29
Nevel, Bewolking  
Nevel, Bewolking  
   Wind: ZZW 9.3 km/h
Wind: ZZW 9.3 km/h
Temperatuur: 5°C
Voelt als: 3°C
Dauwpunt: 4°C
Vochtigheid: 93%
Barometer: 1047 hPa
Bewolking: Bewolking
Zicht: 8 km
Bewolking: Licht bewolkt 300 ft,
Bewolking 10000 ft
EHVK 201329Z AUTO 20005KT 160V220 8000 BR FEW003 OVC100 05/04 Q1047 BLU 20004KT 5000 BR BKN003 TEMPO 3000 BKN002
EDLV - Niederrhein, Germany
Afstand tot: ZO 25 km
Gewijzigd: 20-01-2020 14:20
Grotendeels bewolkt  
Grotendeels bewolkt  
   Wind: ZZW 5.6 km/h
Wind: ZZW 5.6 km/h
Temperatuur: 5°C
Voelt als: 4°C
Dauwpunt: 4°C
Vochtigheid: 93%
Barometer: 1047 hPa
Bewolking: Grotendeels bewolkt
Zicht: 6 km
Bewolking: Grotendeels bewolkt 300 ft
EDLV 201320Z 20003KT 6000 BKN003 05/04 Q1047
EHDL - Deelen Rnlafb, Netherlands
Afstand tot: N 35 km
Gewijzigd: 20-01-2020 14:25
Nevel, Bewolking  
Nevel, Bewolking  
   Wind: ZW 9.3 km/h
Wind: ZW 9.3 km/h
Temperatuur: 5°C
Voelt als: 3°C
Dauwpunt: 5°C
Vochtigheid: 100%
Barometer: 1046 hPa
Bewolking: Bewolking
Zicht: 8 km
Bewolking: Bewolking 8700 ft
EHDL 201325Z AUTO 22005KT 160V260 8000 BR OVC087 05/05 Q1046 BLU
EHEH - Eindhoven Rnlafb, Netherlands
Afstand tot: ZW 48 km
Gewijzigd: 20-01-2020 14:25
Nevel, Bewolking  
Nevel, Bewolking  
   Wind: ZZW 7.4 km/h
Wind: ZZW 7.4 km/h
Temperatuur: 4°C
Voelt als: 2°C
Dauwpunt: 4°C
Vochtigheid: 100%
Barometer: 1047 hPa
Bewolking: Bewolking
Zicht: 4 km
Bewolking: Bewolking 200 ft
EHEH 201325Z AUTO 20004KT 150V230 3800 BR OVC002 04/04 Q1047 AMB 21005KT 4000 BR BKN002 BKN120 TEMPO 2000 OVC002
EHGR - Gilze-Rijen Rnla, Netherlands
Afstand tot: WZW 70 km
Gewijzigd: 20-01-2020 14:25
Nevel, Bewolking  
Nevel, Bewolking  
   Wind: ZZW 9.3 km/h
Wind: ZZW 9.3 km/h
Temperatuur: 6°C
Voelt als: 4°C
Dauwpunt: 5°C
Vochtigheid: 93%
Barometer: 1047 hPa
Bewolking: Bewolking
Zicht: 6 km
Bewolking: Grotendeels bewolkt 600 ft,
Grotendeels bewolkt 8500 ft,
Bewolking 9000 ft
EHGR 201325Z AUTO 20005KT 160V270 6000 BR BKN006 BKN085 OVC090 06/05 Q1047 YLO 19005KT 6000 FEW006 BKN090 TEMPO BKN006 BKN090
EBBL - Kleine-Brogel(Ba, Belgium
Afstand tot: ZZW 71 km
Gewijzigd: 20-01-2020 14:25
Nevel, Grotendeels bewolkt  
Nevel, Grotendeels bewolkt  
   Wind: varieert 3.7 km/h
Wind: varieert 3.7 km/h
Temperatuur: 5°C
Dauwpunt: 4°C
Vochtigheid: 93%
Barometer: 1047 hPa
Bewolking: Grotendeels bewolkt
Zicht: 2 km
Bewolking: Grotendeels bewolkt 400 ft
EBBL 201325Z VRB02KT 2000 BR BKN004 05/04 Q1047 YLO AMB TEMPO YLO

Script ontwikkeld door  Saratoga-weather.org Aangepast voor de template door  Weerstation Leuven

U vindt ons ook hier:

Het Weer Aktueel

European Weather Network

WeatherCloud

Weather Underground

Benelux Weer Netwerk

Apparatuur in gebruik:

Weerstation
Davis VP2

Weerprogramma
consoleWD

Weercomputer
Raspberry

Webleverancier
Stef van Bakel koeltechniek

Davis VP2

consoleWD

Raspberry

Stef van Bakel koeltechniek